Heraklion, Greece

5:42 PM EEST on October 25, 2014 (GMT +0300)
Nikos Kazantzakis | Change Station
CLOSE
Current Station
Airport
Location: Heraklion,
Elevation: 128 ft
Nearby Weather Stations
Active Advisory: Thunderstorms

Elev 128 ft 35.34 °N, 25.17 °E | Updated 22 minutes ago

Scattered Clouds
Scattered Clouds
73 °F
Feels Like 73 °F
N
6
Wind Variable Wind from NNE

Today
High -- | Low -- °F
--% Chance of Precip.
Yesterday
High -- | Low -- °F
Precip. -- in
7:33 AM 6:32 PM
Waxing Crescent, 3% visible
Pressure 29.86 in
Visibility 6.2 miles
Clouds Scattered Clouds 2500 ft
Dew Point 57 °F
Humidity 57%
Rainfall 0.00 in
Snow Depth Not available.
UV 1 out of 12
Pollen Not available.
Air Quality Not available.
Flu Activity Not available.
METAR LGIR 251420Z 02005KT 9999 SCT025 23/14 Q1011 NOSIG

More Conditions Fewer Conditions

Pressure 29.86 in
Visibility 6.2 miles
Clouds Scattered Clouds 2500 ft
Dew Point 57 °F
Humidity 57%
Rainfall 0.00 in
Snow Depth Not available.
UV 1 out of 12
Pollen Not available.
Air Quality Not available.
Flu Activity Not available.
METAR LGIR 251420Z 02005KT 9999 SCT025 23/14 Q1011 NOSIG

More Conditions Fewer Conditions

10-Day Weather Forecast

Almanac

Astronomy

Oct. 25, 2014 Rise Set
Actual Time 7:33 AM EEST 6:32 PM EEST
Civil Twilight 7:08 AM EEST 6:58 PM EEST
Nautical Twilight 6:38 AM EEST 7:27 PM EEST
Astronomical Twilight 6:08 AM EEST 7:57 PM EEST
Moon 8:51 AM EEST 7:43 PM EEST
Length of Visible Light 11h 50m
Length of Day
10h 58m
Tomorrow will be 2m 2s shorter.
Waxing Crescent, 3% of the Moon is Illuminated
Today
Waxing Crescent
Oct 30
First Quarter
Nov 6
Full
Nov 14
Last Quarter
Nov 22
New

Today's Extremes

Country Highs Country Lows

Community

WunderPhotos

Upload Photos

1,764,861 photos uploaded!

Nearby

Snow Depth

Not available.

Earthquake Activity

City Distance Mag. Time & Date
No recent earthquake activity has been reported nearby.
Minimum magnitude displayed is 2.5.

Coastal Water Temperatures

Place Temperature
No Stations Reporting

Nearby Weather Stations